In Rescue
 
Open Full Screen Window  High Contrast Mode
Wind Gusting 21 knots
11
May 20, 2019 2:25 PM EDT
Weather Information
Wind Direction
  290 °
Wind Speed
  11 kt (13 mph)
Wind Gust
  21 kt (24 mph)
Altimeter
29.99 in
Visibility
10 SM
Temperature
11° C
52° F
Dewpoint
05° C
41° F
Humidity
67%
Sky Condition
Overcast @ 2,400 ft
MVFR

METAR KRNP 201825Z AUTO 29011G21KT 10SM OVC024 11/05 A2999 RMK AO2 T01100054

FAA Disclaimer: The data displayed is for advisory purposes only and is not to be used for flight planning or operations.